Time;durP1;ratioP1;P1;durP2;ratioP2;P2;SDS_P1;SDS_P2;PMS_P1;PMS_P2;Temp;Humidity;BMP_temperature;BMP_pressure;BME280_temperature;BME280_humidity;BME280_pressure;Samples;Min_cycle;Max_cycle;Signal;HPM_P1;HPM_P2
2023/12/19 00:00:08;;;;;;;14.48;9.55;;;;;;;;;;698198;28;1272;-72
2023/12/19 00:00:28;;;;;;;13.40;9.57;;;;;;;;;;699096;28;1217;-71
2023/12/19 00:00:49;;;;;;;15.53;10.07;;;;;;;;;;698626;28;4461;-71
2023/12/19 00:01:09;;;;;;;15.73;10.32;;;;;;;;;;700057;28;1168;-70
2023/12/19 00:01:29;;;;;;;14.03;10.20;;;;;;;;;;701367;28;817;-73
2023/12/19 00:01:50;;;;;;;14.57;10.05;;;;;;;;;;698233;28;1129;-71
2023/12/19 00:02:10;;;;;;;14.20;9.93;;;;;;;;;;703829;28;848;-69
2023/12/19 00:02:30;;;;;;;14.68;9.70;;;;;;;;;;701142;28;1156;-71
2023/12/19 00:02:51;;;;;;;15.07;9.77;;;;;;;;;;696964;28;2184;-71
2023/12/19 00:03:11;;;;;;;13.90;9.40;;;;;;;;;;699127;28;1196;-69
2023/12/19 00:03:31;;;;;;;13.60;9.52;;;;;;;;;;698800;28;860;-70
2023/12/19 00:03:52;;;;;;;14.20;9.73;;;;;;;;;;698200;28;4311;-71
2023/12/19 00:04:13;;;;;;;14.75;9.80;;;;;;;;;;700017;28;985;-70
2023/12/19 00:04:33;;;;;;;14.07;9.80;;;;;;;;;;700732;28;1237;-72
2023/12/19 00:04:54;;;;;;;14.63;10.50;;;;;;;;;;696526;28;2651;-68
2023/12/19 00:05:15;;;;;;;15.20;9.73;;;;;;;;;;697566;28;964;-71
2023/12/19 00:05:35;;;;;;;13.40;9.48;;;;;;;;;;697317;28;886;-71
2023/12/19 00:05:56;;;;;;;13.23;9.40;;;;;;;;;;698690;28;959;-70
2023/12/19 00:06:16;;;;;;;14.55;9.45;;;;;;;;;;695662;28;1734;-72
2023/12/19 00:06:37;;;;;;;13.70;9.95;;;;;;;;;;690381;28;4318;-72
2023/12/19 00:06:58;;;;;;;13.18;9.48;;;;;;;;;;695658;28;1158;-71
2023/12/19 00:07:19;;;;;;;13.73;9.65;;;;;;;;;;697170;28;868;-72
2023/12/19 00:07:41;;;;;;;13.57;9.13;;;;;;;;;;694811;28;1844;-70
2023/12/19 00:08:02;;;;;;;12.95;9.15;;;;;;;;;;697623;28;927;-72
2023/12/19 00:08:23;;;;;;;14.07;9.65;;;;;;;;;;700798;28;893;-73
2023/12/19 00:08:44;;;;;;;13.52;9.55;;;;;;;;;;703207;27;2403;-70
2023/12/19 00:09:04;;;;;;;14.45;9.68;;;;;;;;;;706661;27;808;-70
2023/12/19 00:09:25;;;;;;;15.00;9.97;;;;;;;;;;704155;27;1719;-72
2023/12/19 00:09:46;;;;;;;12.25;9.30;;;;;;;;;;705043;27;4213;-70
2023/12/19 00:10:07;;;;;;;12.98;9.38;;;;;;;;;;703370;28;1814;-70
2023/12/19 00:10:27;;;;;;;13.07;9.18;;;;;;;;;;703867;28;844;-70
2023/12/19 00:10:48;;;;;;;13.57;9.60;;;;;;;;;;702864;28;2523;-71
2023/12/19 00:11:08;;;;;;;14.10;9.63;;;;;;;;;;703827;28;1191;-71
2023/12/19 00:11:28;;;;;;;14.00;9.43;;;;;;;;;;703294;28;777;-69
2023/12/19 00:11:49;;;;;;;13.85;9.40;;;;;;;;;;700329;28;1797;-71
2023/12/19 00:12:09;;;;;;;15.20;9.70;;;;;;;;;;695349;28;874;-71
2023/12/19 00:12:29;;;;;;;16.33;9.60;;;;;;;;;;695390;28;877;-74
2023/12/19 00:12:51;;;;;;;15.25;9.90;;;;;;;;;;697712;28;4229;-71
2023/12/19 00:13:11;;;;;;;13.35;9.38;;;;;;;;;;698382;28;1933;-69
2023/12/19 00:13:32;;;;;;;13.85;9.18;;;;;;;;;;697845;28;912;-70
2023/12/19 00:13:52;;;;;;;14.27;9.30;;;;;;;;;;700479;28;2080;-71
2023/12/19 00:14:12;;;;;;;14.50;9.80;;;;;;;;;;706998;27;959;-70
2023/12/19 00:14:33;;;;;;;13.70;9.87;;;;;;;;;;706635;27;915;-72
2023/12/19 00:14:53;;;;;;;13.47;9.37;;;;;;;;;;705912;27;2360;-72
2023/12/19 00:15:13;;;;;;;13.80;9.40;;;;;;;;;;705327;27;1428;-71
2023/12/19 00:15:35;;;;;;;13.27;9.60;;;;;;;;;;702113;28;4409;-70
2023/12/19 00:15:56;;;;;;;12.15;8.82;;;;;;;;;;702521;28;1168;-69
2023/12/19 00:16:16;;;;;;;13.73;9.43;;;;;;;;;;702301;28;1237;-70
2023/12/19 00:16:36;;;;;;;14.30;9.30;;;;;;;;;;701914;28;1860;-71
2023/12/19 00:16:58;;;;;;;12.83;9.30;;;;;;;;;;704031;28;1119;-74
2023/12/19 00:17:18;;;;;;;12.75;9.18;;;;;;;;;;703886;28;1080;-72
2023/12/19 00:17:40;;;;;;;14.02;9.32;;;;;;;;;;701954;28;1286;-71
2023/12/19 00:18:00;;;;;;;12.88;8.82;;;;;;;;;;700646;28;1244;-71
2023/12/19 00:18:20;;;;;;;13.13;9.18;;;;;;;;;;703062;28;972;-72
2023/12/19 00:18:41;;;;;;;13.00;9.57;;;;;;;;;;702377;27;4237;-70
2023/12/19 00:19:01;;;;;;;13.07;9.33;;;;;;;;;;700496;28;1174;-71
2023/12/19 00:19:21;;;;;;;13.63;9.18;;;;;;;;;;701087;28;1132;-71
2023/12/19 00:19:42;;;;;;;13.53;9.70;;;;;;;;;;699151;28;1775;-71
2023/12/19 00:20:02;;;;;;;13.60;9.83;;;;;;;;;;697007;28;3078;-69
2023/12/19 00:20:23;;;;;;;13.82;9.32;;;;;;;;;;698008;28;880;-70
2023/12/19 00:20:43;;;;;;;13.68;9.50;;;;;;;;;;697034;28;2166;-72
2023/12/19 00:21:03;;;;;;;12.70;9.20;;;;;;;;;;698530;28;1261;-72
2023/12/19 00:21:24;;;;;;;13.87;9.30;;;;;;;;;;695306;28;1277;-73
2023/12/19 00:21:44;;;;;;;14.32;9.20;;;;;;;;;;693483;28;4206;-71
2023/12/19 00:22:04;;;;;;;13.20;9.20;;;;;;;;;;698011;28;1317;-71
2023/12/19 00:22:25;;;;;;;13.40;9.40;;;;;;;;;;697665;28;1323;-74
2023/12/19 00:22:45;;;;;;;13.35;9.77;;;;;;;;;;698787;28;1855;-73
2023/12/19 00:23:05;;;;;;;13.23;9.73;;;;;;;;;;702175;28;1161;-72
2023/12/19 00:23:30;;;;;;;14.33;9.97;;;;;;;;;;700660;28;1114;-72
2023/12/19 00:23:50;;;;;;;14.40;9.88;;;;;;;;;;699729;28;2607;-72
2023/12/19 00:24:11;;;;;;;13.87;9.27;;;;;;;;;;701445;28;1206;-72
2023/12/19 00:24:32;;;;;;;14.82;9.40;;;;;;;;;;703476;28;931;-74
2023/12/19 00:24:52;;;;;;;13.97;9.40;;;;;;;;;;703038;28;4418;-71
2023/12/19 00:25:12;;;;;;;13.97;9.77;;;;;;;;;;701717;28;1142;-70
2023/12/19 00:25:32;;;;;;;15.00;10.30;;;;;;;;;;703015;28;1101;-71
2023/12/19 00:25:53;;;;;;;15.27;10.03;;;;;;;;;;700002;28;1853;-69
2023/12/19 00:26:15;;;;;;;14.73;10.15;;;;;;;;;;702640;28;1339;-73
2023/12/19 00:26:35;;;;;;;14.00;9.98;;;;;;;;;;703555;28;1277;-72
2023/12/19 00:26:55;;;;;;;14.53;10.10;;;;;;;;;;703065;27;1164;-73
2023/12/19 00:27:16;;;;;;;13.87;9.80;;;;;;;;;;702222;28;996;-72
2023/12/19 00:27:36;;;;;;;12.70;9.55;;;;;;;;;;701655;28;4345;-69
2023/12/19 00:27:58;;;;;;;13.13;9.83;;;;;;;;;;703468;28;1193;-70
2023/12/19 00:28:19;;;;;;;14.85;9.70;;;;;;;;;;701641;28;1054;-70
2023/12/19 00:28:39;;;;;;;14.47;9.57;;;;;;;;;;702415;28;1635;-73
2023/12/19 00:28:59;;;;;;;13.82;9.70;;;;;;;;;;702337;28;1098;-72
2023/12/19 00:29:20;;;;;;;13.33;9.40;;;;;;;;;;702059;28;1070;-73
2023/12/19 00:29:40;;;;;;;14.37;9.43;;;;;;;;;;700053;28;1586;-73
2023/12/19 00:30:00;;;;;;;15.63;9.57;;;;;;;;;;700439;28;1392;-71
2023/12/19 00:30:20;;;;;;;13.70;9.23;;;;;;;;;;696920;28;1094;-72
2023/12/19 00:30:41;;;;;;;13.50;9.37;;;;;;;;;;699467;28;4316;-73
2023/12/19 00:31:01;;;;;;;14.02;9.27;;;;;;;;;;701196;28;1186;-72
2023/12/19 00:31:22;;;;;;;13.57;9.47;;;;;;;;;;699660;28;1014;-71
2023/12/19 00:31:43;;;;;;;13.25;9.25;;;;;;;;;;701916;28;1734;-72
2023/12/19 00:32:03;;;;;;;15.05;9.68;;;;;;;;;;703164;28;1221;-74
2023/12/19 00:32:23;;;;;;;13.90;9.70;;;;;;;;;;702145;28;1119;-73
2023/12/19 00:32:44;;;;;;;13.40;9.97;;;;;;;;;;701183;28;1869;-70
2023/12/19 00:33:05;;;;;;;14.98;9.82;;;;;;;;;;703422;28;1953;-71
2023/12/19 00:33:25;;;;;;;13.65;9.35;;;;;;;;;;703259;28;1131;-71
2023/12/19 00:33:45;;;;;;;16.03;9.83;;;;;;;;;;701021;28;4245;-71
2023/12/19 00:34:05;;;;;;;15.80;9.80;;;;;;;;;;702735;28;1197;-72
2023/12/19 00:34:26;;;;;;;15.93;10.07;;;;;;;;;;705276;27;1065;-71
2023/12/19 00:34:46;;;;;;;14.93;9.87;;;;;;;;;;703737;27;1487;-70
2023/12/19 00:35:06;;;;;;;14.63;9.97;;;;;;;;;;706160;27;1042;-69
2023/12/19 00:35:27;;;;;;;15.75;10.27;;;;;;;;;;705904;27;1308;-72
2023/12/19 00:35:47;;;;;;;15.85;9.82;;;;;;;;;;702231;28;2470;-71
2023/12/19 00:36:08;;;;;;;15.83;10.07;;;;;;;;;;700771;28;1198;-69
2023/12/19 00:36:28;;;;;;;14.10;9.77;;;;;;;;;;700368;28;1244;-68
2023/12/19 00:36:50;;;;;;;13.63;9.50;;;;;;;;;;699546;28;5073;-70
2023/12/19 00:37:10;;;;;;;14.30;9.18;;;;;;;;;;701116;28;944;-71
2023/12/19 00:37:30;;;;;;;13.48;9.50;;;;;;;;;;698289;28;899;-71
2023/12/19 00:37:50;;;;;;;15.50;9.80;;;;;;;;;;699507;28;1225;-70
2023/12/19 00:38:11;;;;;;;15.60;10.00;;;;;;;;;;704088;28;1033;-72
2023/12/19 00:38:31;;;;;;;14.70;9.40;;;;;;;;;;700343;28;1135;-69
2023/12/19 00:38:51;;;;;;;14.90;9.50;;;;;;;;;;698575;28;5772;-71
2023/12/19 00:39:11;;;;;;;14.70;10.17;;;;;;;;;;698763;28;1417;-70
2023/12/19 00:39:32;;;;;;;14.55;10.30;;;;;;;;;;701157;28;903;-71
2023/12/19 00:39:52;;;;;;;13.30;9.93;;;;;;;;;;696721;28;4218;-70
2023/12/19 00:40:12;;;;;;;15.50;9.80;;;;;;;;;;699753;28;883;-71
2023/12/19 00:40:33;;;;;;;15.38;10.23;;;;;;;;;;700626;28;1337;-70
2023/12/19 00:40:53;;;;;;;15.40;10.13;;;;;;;;;;696030;28;2488;-71
2023/12/19 00:41:14;;;;;;;14.93;10.40;;;;;;;;;;698095;28;878;-71
2023/12/19 00:41:35;;;;;;;15.10;10.82;;;;;;;;;;698408;28;1403;-70
2023/12/19 00:41:55;;;;;;;15.73;10.53;;;;;;;;;;693720;28;904;-71
2023/12/19 00:42:15;;;;;;;15.52;10.27;;;;;;;;;;696154;28;1045;-72
2023/12/19 00:42:35;;;;;;;15.07;10.33;;;;;;;;;;697198;28;4258;-71
2023/12/19 00:42:56;;;;;;;14.50;10.00;;;;;;;;;;698345;28;2473;-69
2023/12/19 00:43:16;;;;;;;15.00;9.70;;;;;;;;;;700841;28;974;-71
2023/12/19 00:43:36;;;;;;;14.30;10.10;;;;;;;;;;701426;28;1200;-72
2023/12/19 00:43:57;;;;;;;16.87;11.03;;;;;;;;;;699383;28;1096;-70
2023/12/19 00:44:17;;;;;;;17.00;10.47;;;;;;;;;;701321;28;1014;-71
2023/12/19 00:44:37;;;;;;;14.03;10.00;;;;;;;;;;701189;28;989;-71
2023/12/19 00:44:58;;;;;;;14.50;10.57;;;;;;;;;;702480;28;1019;-71
2023/12/19 00:45:18;;;;;;;13.83;10.20;;;;;;;;;;701907;28;1266;-71
2023/12/19 00:45:38;;;;;;;14.67;10.17;;;;;;;;;;699574;28;4234;-71
2023/12/19 00:45:58;;;;;;;15.57;10.27;;;;;;;;;;695912;28;1504;-70
2023/12/19 00:46:19;;;;;;;15.57;10.47;;;;;;;;;;694110;28;1125;-70
2023/12/19 00:46:43;;;;;;;15.98;10.60;;;;;;;;;;694530;28;2470;-70
2023/12/19 00:47:03;;;;;;;15.18;10.23;;;;;;;;;;696303;28;991;-70
2023/12/19 00:47:24;;;;;;;14.23;10.13;;;;;;;;;;696161;28;1098;-70
2023/12/19 00:47:44;;;;;;;15.87;10.60;;;;;;;;;;697211;28;1838;-72
2023/12/19 00:48:04;;;;;;;14.13;10.45;;;;;;;;;;696035;28;1253;-71
2023/12/19 00:48:25;;;;;;;17.17;10.10;;;;;;;;;;698200;28;1083;-71
2023/12/19 00:48:45;;;;;;;18.40;10.25;;;;;;;;;;695748;28;4322;-71
2023/12/19 00:49:06;;;;;;;15.43;9.93;;;;;;;;;;697699;28;880;-73
2023/12/19 00:49:26;;;;;;;16.30;10.45;;;;;;;;;;699833;28;1161;-71
2023/12/19 00:49:46;;;;;;;14.77;10.77;;;;;;;;;;699531;28;1981;-71
2023/12/19 00:50:07;;;;;;;14.33;10.10;;;;;;;;;;698143;28;754;-70
2023/12/19 00:50:28;;;;;;;15.15;10.38;;;;;;;;;;698361;28;916;-71
2023/12/19 00:50:48;;;;;;;14.90;10.17;;;;;;;;;;697214;28;1716;-69
2023/12/19 00:51:09;;;;;;;14.90;10.03;;;;;;;;;;698016;28;887;-70
2023/12/19 00:51:29;;;;;;;14.90;10.40;;;;;;;;;;698179;28;1077;-71
2023/12/19 00:51:50;;;;;;;14.53;10.00;;;;;;;;;;698791;28;4588;-69
2023/12/19 00:52:10;;;;;;;14.63;9.50;;;;;;;;;;703502;28;1032;-71
2023/12/19 00:52:30;;;;;;;15.23;9.98;;;;;;;;;;703148;28;1004;-71
2023/12/19 00:52:51;;;;;;;15.87;10.13;;;;;;;;;;699611;28;1469;-70
2023/12/19 00:53:11;;;;;;;15.87;10.40;;;;;;;;;;700732;28;1985;-71
2023/12/19 00:53:31;;;;;;;14.88;10.23;;;;;;;;;;701948;28;848;-69
2023/12/19 00:53:51;;;;;;;14.63;10.30;;;;;;;;;;700106;28;1810;-71
2023/12/19 00:54:12;;;;;;;17.67;10.80;;;;;;;;;;703876;28;947;-70
2023/12/19 00:54:32;;;;;;;15.68;10.38;;;;;;;;;;700550;28;4384;-70
2023/12/19 00:54:53;;;;;;;15.30;9.90;;;;;;;;;;701262;28;1671;-71
2023/12/19 00:55:13;;;;;;;14.98;9.90;;;;;;;;;;702561;28;1043;-70
2023/12/19 00:55:33;;;;;;;15.27;10.63;;;;;;;;;;702684;28;1001;-71
2023/12/19 00:55:53;;;;;;;15.40;10.40;;;;;;;;;;701783;28;1799;-71
2023/12/19 00:56:14;;;;;;;14.93;10.45;;;;;;;;;;701082;28;1262;-71
2023/12/19 00:56:34;;;;;;;15.53;10.70;;;;;;;;;;698938;28;1452;-72
2023/12/19 00:56:55;;;;;;;16.00;11.40;;;;;;;;;;699921;28;2095;-72
2023/12/19 00:57:15;;;;;;;16.67;10.82;;;;;;;;;;700896;28;1230;-70
2023/12/19 00:57:35;;;;;;;16.50;10.77;;;;;;;;;;700130;28;4221;-71
2023/12/19 00:57:55;;;;;;;15.63;10.30;;;;;;;;;;699781;28;1793;-71
2023/12/19 00:58:16;;;;;;;15.83;10.70;;;;;;;;;;703230;28;936;-70
2023/12/19 00:58:37;;;;;;;15.93;10.40;;;;;;;;;;702078;28;955;-71
2023/12/19 00:58:57;;;;;;;14.52;10.18;;;;;;;;;;701030;28;1304;-71
2023/12/19 00:59:17;;;;;;;14.73;10.25;;;;;;;;;;703523;28;1467;-70
2023/12/19 00:59:39;;;;;;;14.73;10.60;;;;;;;;;;703449;28;883;-71
2023/12/19 00:59:59;;;;;;;15.00;10.23;;;;;;;;;;702515;28;1588;-71
2023/12/19 01:00:19;;;;;;;15.50;10.47;;;;;;;;;;702455;28;944;-70
2023/12/19 01:00:39;;;;;;;16.63;10.50;;;;;;;;;;701486;28;4239;-70
2023/12/19 01:01:00;;;;;;;14.80;10.52;;;;;;;;;;703963;28;1064;-70
2023/12/19 01:01:23;;;;;;;15.17;10.63;;;;;;;;;;702785;28;1400;-70
2023/12/19 01:01:44;;;;;;;15.52;10.60;;;;;;;;;;701434;28;2311;-72
2023/12/19 01:02:04;;;;;;;15.88;10.15;;;;;;;;;;700686;28;995;-71
2023/12/19 01:02:27;;;;;;;16.67;10.23;;;;;;;;;;700925;28;1246;-70
2023/12/19 01:02:47;;;;;;;15.85;10.27;;;;;;;;;;698156;28;1754;-71
2023/12/19 01:03:07;;;;;;;15.80;10.65;;;;;;;;;;701838;28;797;-71
2023/12/19 01:03:28;;;;;;;15.20;9.90;;;;;;;;;;703330;28;809;-69
2023/12/19 01:03:48;;;;;;;14.70;10.10;;;;;;;;;;701468;28;4268;-71
2023/12/19 01:04:09;;;;;;;14.98;10.27;;;;;;;;;;706295;28;1079;-70
2023/12/19 01:04:29;;;;;;;15.30;10.23;;;;;;;;;;706926;27;926;-70
2023/12/19 01:04:50;;;;;;;15.67;10.17;;;;;;;;;;704657;27;1830;-70
2023/12/19 01:05:10;;;;;;;15.23;9.75;;;;;;;;;;706232;27;1019;-71
2023/12/19 01:05:30;;;;;;;15.00;10.23;;;;;;;;;;706502;28;1191;-71
2023/12/19 01:05:51;;;;;;;14.67;9.87;;;;;;;;;;704942;27;1663;-71
2023/12/19 01:06:11;;;;;;;15.18;10.10;;;;;;;;;;704404;28;1107;-69
2023/12/19 01:06:32;;;;;;;15.30;10.17;;;;;;;;;;706176;28;1873;-70
2023/12/19 01:06:52;;;;;;;14.67;9.90;;;;;;;;;;698305;28;4408;-70
2023/12/19 01:07:12;;;;;;;15.10;10.00;;;;;;;;;;700452;28;1173;-71
2023/12/19 01:07:32;;;;;;;14.82;10.32;;;;;;;;;;700835;28;900;-71
2023/12/19 01:07:53;;;;;;;14.90;10.73;;;;;;;;;;699553;28;2507;-70
2023/12/19 01:08:13;;;;;;;15.07;9.90;;;;;;;;;;697916;28;1166;-71
2023/12/19 01:08:34;;;;;;;14.90;9.93;;;;;;;;;;698497;28;841;-70
2023/12/19 01:08:55;;;;;;;14.88;10.05;;;;;;;;;;698632;28;1757;-71
2023/12/19 01:09:15;;;;;;;14.80;9.87;;;;;;;;;;700877;28;981;-70
2023/12/19 01:09:35;;;;;;;14.93;10.17;;;;;;;;;;701084;28;4240;-71
2023/12/19 01:09:56;;;;;;;14.67;10.40;;;;;;;;;;700188;28;1858;-70
2023/12/19 01:10:16;;;;;;;14.23;10.25;;;;;;;;;;705495;28;975;-70
2023/12/19 01:10:36;;;;;;;14.37;10.13;;;;;;;;;;703334;28;888;-71
2023/12/19 01:10:57;;;;;;;15.03;9.63;;;;;;;;;;702908;28;1216;-71
2023/12/19 01:11:18;;;;;;;14.38;10.00;;;;;;;;;;700756;28;1293;-70
2023/12/19 01:11:38;;;;;;;13.50;9.82;;;;;;;;;;701001;28;1194;-71
2023/12/19 01:11:58;;;;;;;13.57;9.63;;;;;;;;;;699503;28;1176;-71
2023/12/19 01:12:19;;;;;;;13.48;9.77;;;;;;;;;;700918;28;1034;-71
2023/12/19 01:12:39;;;;;;;13.23;9.43;;;;;;;;;;703619;28;4546;-70
2023/12/19 01:12:59;;;;;;;14.33;9.43;;;;;;;;;;701792;28;1922;-71
2023/12/19 01:13:19;;;;;;;14.97;9.63;;;;;;;;;;706128;28;856;-70
2023/12/19 01:13:40;;;;;;;14.32;9.75;;;;;;;;;;706624;28;1007;-71
2023/12/19 01:14:00;;;;;;;14.33;9.83;;;;;;;;;;706234;28;1179;-71
2023/12/19 01:14:20;;;;;;;14.50;9.73;;;;;;;;;;706100;28;895;-70
2023/12/19 01:14:41;;;;;;;13.87;9.40;;;;;;;;;;702220;28;1741;-70
2023/12/19 01:15:01;;;;;;;13.07;9.38;;;;;;;;;;701616;28;982;-71
2023/12/19 01:15:22;;;;;;;14.43;9.27;;;;;;;;;;700204;28;1379;-71
2023/12/19 01:15:42;;;;;;;14.77;9.67;;;;;;;;;;697834;28;4238;-70
2023/12/19 01:16:03;;;;;;;13.73;9.37;;;;;;;;;;699090;28;1083;-70
2023/12/19 01:16:23;;;;;;;14.27;9.75;;;;;;;;;;700389;28;3512;-71
2023/12/19 01:16:44;;;;;;;14.87;9.67;;;;;;;;;;699806;28;1809;-70
2023/12/19 01:17:04;;;;;;;14.20;9.63;;;;;;;;;;705968;28;958;-71
2023/12/19 01:17:24;;;;;;;13.87;9.70;;;;;;;;;;704839;28;990;-70
2023/12/19 01:17:44;;;;;;;14.13;9.87;;;;;;;;;;705870;27;1702;-70
2023/12/19 01:18:05;;;;;;;14.73;9.70;;;;;;;;;;704120;28;943;-70
2023/12/19 01:18:25;;;;;;;13.90;9.27;;;;;;;;;;702337;28;1054;-70
2023/12/19 01:18:45;;;;;;;14.33;9.57;;;;;;;;;;698467;28;4214;-70
2023/12/19 01:19:09;;;;;;;14.50;9.70;;;;;;;;;;700888;28;919;-70
2023/12/19 01:19:29;;;;;;;14.50;9.57;;;;;;;;;;700966;28;1046;-72
2023/12/19 01:19:50;;;;;;;14.03;9.20;;;;;;;;;;699418;28;1707;-70
2023/12/19 01:20:10;;;;;;;13.67;9.43;;;;;;;;;;700598;28;976;-70
2023/12/19 01:20:30;;;;;;;13.30;9.00;;;;;;;;;;700810;28;860;-70
2023/12/19 01:20:51;;;;;;;13.13;9.03;;;;;;;;;;702673;28;1202;-71
2023/12/19 01:21:11;;;;;;;12.98;9.20;;;;;;;;;;699729;28;1011;-70
2023/12/19 01:21:31;;;;;;;13.70;9.23;;;;;;;;;;698057;28;1276;-71
2023/12/19 01:21:52;;;;;;;14.67;9.83;;;;;;;;;;695714;28;4201;-70
2023/12/19 01:22:12;;;;;;;14.73;10.02;;;;;;;;;;696691;28;956;-72
2023/12/19 01:22:33;;;;;;;14.00;9.83;;;;;;;;;;697120;28;794;-70
2023/12/19 01:22:53;;;;;;;14.70;9.60;;;;;;;;;;696241;28;2126;-72
2023/12/19 01:23:14;;;;;;;14.37;9.63;;;;;;;;;;701250;28;932;-71
2023/12/19 01:23:34;;;;;;;14.52;9.93;;;;;;;;;;701455;28;1414;-71
2023/12/19 01:23:55;;;;;;;14.10;9.80;;;;;;;;;;701667;28;1572;-71
2023/12/19 01:24:15;;;;;;;14.57;10.07;;;;;;;;;;703478;28;1190;-72
2023/12/19 01:24:35;;;;;;;14.17;9.87;;;;;;;;;;702392;28;4462;-71
2023/12/19 01:24:56;;;;;;;15.37;10.00;;;;;;;;;;701332;28;2108;-71
2023/12/19 01:25:16;;;;;;;15.03;9.93;;;;;;;;;;703530;28;995;-71
2023/12/19 01:25:37;;;;;;;15.32;10.02;;;;;;;;;;703368;28;919;-70
2023/12/19 01:25:57;;;;;;;14.27;9.90;;;;;;;;;;701856;28;1268;-71
2023/12/19 01:26:18;;;;;;;14.33;9.83;;;;;;;;;;703988;28;1037;-70
2023/12/19 01:26:38;;;;;;;15.52;9.77;;;;;;;;;;703611;28;1105;-71
2023/12/19 01:26:58;;;;;;;13.63;9.63;;;;;;;;;;701670;28;1871;-70
2023/12/19 01:27:19;;;;;;;14.80;10.30;;;;;;;;;;703929;28;963;-70
2023/12/19 01:27:39;;;;;;;14.90;10.00;;;;;;;;;;703158;28;4395;-70
2023/12/19 01:27:59;;;;;;;13.63;9.47;;;;;;;;;;700186;28;1682;-69
2023/12/19 01:28:19;;;;;;;13.73;9.57;;;;;;;;;;694250;28;1283;-70
2023/12/19 01:28:40;;;;;;;14.63;9.82;;;;;;;;;;694053;28;1231;-70
2023/12/19 01:29:00;;;;;;;13.83;9.20;;;;;;;;;;689466;28;2234;-70
2023/12/19 01:29:22;;;;;;;14.38;9.80;;;;;;;;;;689731;28;1131;-70
2023/12/19 01:29:42;;;;;;;13.50;9.60;;;;;;;;;;688609;28;2435;-70
2023/12/19 01:30:03;;;;;;;14.23;9.67;;;;;;;;;;692997;28;1188;-71
2023/12/19 01:30:23;;;;;;;14.70;9.90;;;;;;;;;;698048;28;821;-70
2023/12/19 01:30:43;;;;;;;14.43;9.80;;;;;;;;;;695695;28;4295;-70
2023/12/19 01:31:04;;;;;;;13.57;9.57;;;;;;;;;;702361;28;1047;-70
2023/12/19 01:31:24;;;;;;;13.20;9.47;;;;;;;;;;705024;28;1163;-72
2023/12/19 01:31:44;;;;;;;14.73;9.88;;;;;;;;;;700425;28;1864;-71
2023/12/19 01:32:05;;;;;;;14.00;10.07;;;;;;;;;;699610;28;1678;-71
2023/12/19 01:32:25;;;;;;;13.20;9.43;;;;;;;;;;697872;28;1370;-70
2023/12/19 01:32:45;;;;;;;14.43;9.48;;;;;;;;;;699537;28;1603;-71
2023/12/19 01:33:06;;;;;;;14.33;9.47;;;;;;;;;;701255;28;1910;-71
2023/12/19 01:33:27;;;;;;;14.18;9.23;;;;;;;;;;698932;28;928;-71
2023/12/19 01:33:47;;;;;;;13.77;9.50;;;;;;;;;;698691;28;4295;-70
2023/12/19 01:34:07;;;;;;;13.30;9.30;;;;;;;;;;701224;28;1068;-71
2023/12/19 01:34:27;;;;;;;13.83;9.37;;;;;;;;;;702101;28;916;-72
2023/12/19 01:34:48;;;;;;;14.88;9.75;;;;;;;;;;701384;28;2095;-71
2023/12/19 01:35:08;;;;;;;13.70;9.30;;;;;;;;;;700998;28;1379;-70
2023/12/19 01:35:29;;;;;;;13.00;9.32;;;;;;;;;;699859;28;1050;-71
2023/12/19 01:35:49;;;;;;;13.60;9.40;;;;;;;;;;698677;28;1735;-71
2023/12/19 01:36:10;;;;;;;14.43;10.23;;;;;;;;;;697486;28;1171;-70
2023/12/19 01:36:30;;;;;;;14.20;9.83;;;;;;;;;;699124;28;892;-70
2023/12/19 01:36:50;;;;;;;13.67;9.63;;;;;;;;;;694924;28;4269;-70
2023/12/19 01:37:11;;;;;;;13.80;9.57;;;;;;;;;;699289;28;1032;-71
2023/12/19 01:37:31;;;;;;;13.23;9.30;;;;;;;;;;703545;28;852;-73
2023/12/19 01:37:51;;;;;;;14.03;9.60;;;;;;;;;;702773;28;1686;-71
2023/12/19 01:38:13;;;;;;;13.90;9.83;;;;;;;;;;706304;28;974;-70
2023/12/19 01:38:33;;;;;;;13.68;9.95;;;;;;;;;;703433;28;987;-72
2023/12/19 01:38:54;;;;;;;13.73;9.30;;;;;;;;;;700729;28;2873;-71
2023/12/19 01:39:14;;;;;;;13.83;9.20;;;;;;;;;;703005;28;1378;-72
2023/12/19 01:39:34;;;;;;;14.07;9.70;;;;;;;;;;699411;28;4779;-69
2023/12/19 01:39:55;;;;;;;14.75;9.63;;;;;;;;;;698807;28;1891;-69
2023/12/19 01:40:15;;;;;;;13.83;9.17;;;;;;;;;;698066;28;993;-72
2023/12/19 01:40:35;;;;;;;13.73;9.33;;;;;;;;;;697965;28;1431;-71
2023/12/19 01:40:56;;;;;;;13.45;9.40;;;;;;;;;;696925;28;2070;-71
2023/12/19 01:41:16;;;;;;;15.37;9.87;;;;;;;;;;695240;28;1187;-71
2023/12/19 01:41:36;;;;;;;15.47;9.50;;;;;;;;;;698739;28;993;-71
2023/12/19 01:41:57;;;;;;;14.00;9.37;;;;;;;;;;695747;28;1986;-70
2023/12/19 01:42:17;;;;;;;14.33;9.30;;;;;;;;;;698745;28;919;-70
2023/12/19 01:42:37;;;;;;;13.95;8.70;;;;;;;;;;701188;28;4385;-71
2023/12/19 01:42:58;;;;;;;14.10;9.00;;;;;;;;;;697205;28;2429;-71
2023/12/19 01:43:20;;;;;;;13.00;9.23;;;;;;;;;;701259;28;1004;-73
2023/12/19 01:43:41;;;;;;;13.75;9.30;;;;;;;;;;698594;28;1289;-72
2023/12/19 01:44:01;;;;;;;13.30;8.90;;;;;;;;;;697262;28;1719;-71
2023/12/19 01:44:21;;;;;;;13.37;9.57;;;;;;;;;;699251;28;997;-71
2023/12/19 01:44:44;;;;;;;14.53;9.30;;;;;;;;;;702163;28;1056;-70
2023/12/19 01:45:05;;;;;;;14.15;9.40;;;;;;;;;;703069;28;888;-71
2023/12/19 01:45:26;;;;;;;13.77;9.67;;;;;;;;;;701495;28;904;-71
2023/12/19 01:45:47;;;;;;;13.35;9.38;;;;;;;;;;701552;28;4467;-71
2023/12/19 01:46:13;;;;;;;13.40;9.43;;;;;;;;;;702749;28;1167;-71
2023/12/19 01:46:34;;;;;;;13.23;9.30;;;;;;;;;;704097;28;915;-72
2023/12/19 01:46:54;;;;;;;13.88;9.80;;;;;;;;;;698677;28;1813;-71
2023/12/19 01:47:15;;;;;;;13.70;9.90;;;;;;;;;;700494;28;999;-70
2023/12/19 01:47:36;;;;;;;14.03;9.73;;;;;;;;;;698618;28;730;-72
2023/12/19 01:47:57;;;;;;;13.80;9.27;;;;;;;;;;695573;28;1162;-70
2023/12/19 01:48:17;;;;;;;13.50;9.03;;;;;;;;;;698521;28;916;-72
2023/12/19 01:48:37;;;;;;;12.83;9.20;;;;;;;;;;698553;28;4210;-71
2023/12/19 01:49:00;;;;;;;14.00;9.33;;;;;;;;;;700314;28;1736;-72
2023/12/19 01:49:21;;;;;;;14.25;9.30;;;;;;;;;;704237;28;999;-71
2023/12/19 01:49:42;;;;;;;13.80;9.50;;;;;;;;;;707616;27;917;-70
2023/12/19 01:50:03;;;;;;;14.00;9.98;;;;;;;;;;702627;28;2484;-71
2023/12/19 01:50:23;;;;;;;15.27;9.90;;;;;;;;;;701390;28;1408;-72
2023/12/19 01:50:43;;;;;;;13.70;9.50;;;;;;;;;;697926;28;1077;-70
2023/12/19 01:51:04;;;;;;;13.77;9.43;;;;;;;;;;698145;28;841;-71
2023/12/19 01:51:24;;;;;;;13.87;9.37;;;;;;;;;;698265;28;987;-71
2023/12/19 01:51:45;;;;;;;14.77;9.67;;;;;;;;;;697371;28;4198;-71
2023/12/19 01:52:06;;;;;;;14.95;9.70;;;;;;;;;;701165;28;899;-71
2023/12/19 01:52:26;;;;;;;14.27;9.63;;;;;;;;;;702749;28;1170;-71
2023/12/19 01:52:54;;;;;;;14.60;10.00;;;;;;;;;;705932;27;1491;-71
2023/12/19 01:53:15;;;;;;;14.98;9.82;;;;;;;;;;706842;27;1923;-71
2023/12/19 01:53:35;;;;;;;14.43;9.67;;;;;;;;;;706850;27;959;-71
2023/12/19 01:53:55;;;;;;;13.87;9.60;;;;;;;;;;704780;27;1361;-71
2023/12/19 01:54:17;;;;;;;13.97;9.53;;;;;;;;;;707178;27;1221;-70
2023/12/19 01:54:39;;;;;;;14.55;9.45;;;;;;;;;;706669;27;4232;-71
2023/12/19 01:54:59;;;;;;;14.82;9.43;;;;;;;;;;705560;27;1516;-70
2023/12/19 01:55:20;;;;;;;14.47;9.43;;;;;;;;;;703915;28;1049;-71
2023/12/19 01:55:40;;;;;;;14.33;9.47;;;;;;;;;;704185;28;1289;-71
2023/12/19 01:56:01;;;;;;;14.52;9.43;;;;;;;;;;702482;28;1787;-70
2023/12/19 01:56:23;;;;;;;14.30;9.68;;;;;;;;;;701022;28;1418;-70
2023/12/19 01:56:43;;;;;;;14.18;9.55;;;;;;;;;;699106;28;952;-71
2023/12/19 01:57:04;;;;;;;15.75;10.15;;;;;;;;;;695469;28;1823;-70
2023/12/19 01:57:24;;;;;;;17.57;10.73;;;;;;;;;;693305;28;1398;-71
2023/12/19 01:57:45;;;;;;;15.90;10.00;;;;;;;;;;692718;28;4416;-72
2023/12/19 01:58:06;;;;;;;14.77;9.43;;;;;;;;;;696326;28;841;-71
2023/12/19 01:58:28;;;;;;;13.87;9.47;;;;;;;;;;698220;28;1337;-71
2023/12/19 01:58:48;;;;;;;14.13;9.63;;;;;;;;;;696018;28;1898;-72
2023/12/19 01:59:10;;;;;;;13.07;9.17;;;;;;;;;;698155;28;1565;-71
2023/12/19 01:59:30;;;;;;;12.88;9.00;;;;;;;;;;695058;28;1461;-71
2023/12/19 01:59:50;;;;;;;13.57;9.23;;;;;;;;;;694229;28;1760;-71
2023/12/19 02:00:14;;;;;;;14.77;9.73;;;;;;;;;;694009;28;1319;-71
2023/12/19 02:00:35;;;;;;;14.18;9.10;;;;;;;;;;696197;28;4340;-71
2023/12/19 02:00:56;;;;;;;13.38;8.75;;;;;;;;;;697561;28;1497;-71
2023/12/19 02:01:17;;;;;;;13.30;9.23;;;;;;;;;;698401;28;1128;-71
2023/12/19 02:01:38;;;;;;;14.40;9.40;;;;;;;;;;700578;28;1261;-71
2023/12/19 02:01:58;;;;;;;13.60;8.55;;;;;;;;;;700470;28;1109;-72
2023/12/19 02:02:18;;;;;;;13.13;9.07;;;;;;;;;;704216;28;1233;-70
2023/12/19 02:02:42;;;;;;;13.40;9.20;;;;;;;;;;700220;28;1262;-70
2023/12/19 02:03:02;;;;;;;13.48;9.18;;;;;;;;;;696675;28;2354;-71
2023/12/19 02:03:23;;;;;;;14.02;9.38;;;;;;;;;;698533;28;1167;-72
2023/12/19 02:03:45;;;;;;;13.73;9.25;;;;;;;;;;697797;28;4231;-70
2023/12/19 02:04:06;;;;;;;14.90;9.13;;;;;;;;;;697603;28;1404;-71
2023/12/19 02:04:26;;;;;;;14.65;9.60;;;;;;;;;;698876;28;1520;-71
2023/12/19 02:04:46;;;;;;;14.17;9.50;;;;;;;;;;699715;28;1387;-72
2023/12/19 02:05:07;;;;;;;13.80;9.17;;;;;;;;;;697830;28;1234;-70